createdAt,value
2018-01-23T00:01:43.016Z,11.90
2018-01-23T00:04:10.499Z,12.82
2018-01-23T00:06:37.990Z,12.40
2018-01-23T00:09:05.444Z,13.75
2018-01-23T00:11:32.923Z,13.23
2018-01-23T00:14:00.392Z,12.47
2018-01-23T00:16:27.857Z,13.00
2018-01-23T00:18:55.339Z,12.80
2018-01-23T00:21:22.840Z,12.32
2018-01-23T00:23:50.305Z,13.73
2018-01-23T00:26:17.768Z,14.15
2018-01-23T00:28:45.271Z,13.35
2018-01-23T00:31:12.715Z,13.85
2018-01-23T00:33:40.199Z,14.03
2018-01-23T00:36:07.685Z,13.45
2018-01-23T00:38:35.149Z,14.13
2018-01-23T00:41:02.619Z,13.80
2018-01-23T00:43:30.101Z,14.23
2018-01-23T00:45:57.572Z,13.45
2018-01-23T00:48:25.056Z,14.43
2018-01-23T00:50:52.555Z,15.05
2018-01-23T00:53:20.048Z,15.50
2018-01-23T00:55:47.545Z,15.50
2018-01-23T00:58:15.025Z,14.90
2018-01-23T01:00:42.484Z,15.70
2018-01-23T01:03:09.967Z,15.50
2018-01-23T01:05:37.458Z,15.23
2018-01-23T01:08:04.933Z,16.30
2018-01-23T01:10:32.421Z,14.50
2018-01-23T01:12:59.911Z,14.32
2018-01-23T01:15:27.393Z,14.32
2018-01-23T01:17:54.870Z,14.23
2018-01-23T01:20:22.371Z,14.77
2018-01-23T01:22:49.860Z,14.63
2018-01-23T01:25:17.347Z,14.32
2018-01-23T01:27:44.843Z,14.87
2018-01-23T01:30:12.304Z,13.00
2018-01-23T01:32:39.781Z,13.60
2018-01-23T01:35:07.267Z,13.07
2018-01-23T01:37:34.744Z,11.90
2018-01-23T01:40:02.199Z,13.73
2018-01-23T01:42:29.677Z,11.68
2018-01-23T01:44:57.158Z,10.93
2018-01-23T01:47:24.643Z,12.30
2018-01-23T01:49:52.110Z,12.55
2018-01-23T01:52:19.572Z,11.52
2018-01-23T01:54:47.055Z,11.55
2018-01-23T01:57:14.544Z,11.18
2018-01-23T01:59:42.021Z,9.77
2018-01-23T02:02:09.502Z,10.90
2018-01-23T02:04:36.983Z,10.33
2018-01-23T02:07:04.469Z,9.90
2018-01-23T02:09:31.946Z,11.27
2018-01-23T02:11:59.420Z,10.68
2018-01-23T02:14:26.875Z,10.77
2018-01-23T02:16:54.341Z,10.52
2018-01-23T02:19:21.823Z,10.10
2018-01-23T02:21:49.281Z,9.50
2018-01-23T02:24:16.737Z,9.20
2018-01-23T02:26:44.257Z,10.50
2018-01-23T02:29:11.729Z,11.25
2018-01-23T02:31:39.176Z,9.55
2018-01-23T02:34:06.653Z,10.93
2018-01-23T02:36:34.127Z,9.05
2018-01-23T02:39:01.605Z,10.45
2018-01-23T02:41:29.101Z,10.00
2018-01-23T02:43:56.553Z,8.85
2018-01-23T02:46:24.015Z,9.02
2018-01-23T02:48:51.484Z,9.80
2018-01-23T02:51:18.936Z,9.85
2018-01-23T02:53:46.401Z,9.15
2018-01-23T02:56:13.876Z,10.45
2018-01-23T02:58:41.332Z,9.05
2018-01-23T03:01:08.803Z,8.27
2018-01-23T03:03:36.290Z,9.07
2018-01-23T03:06:03.756Z,8.80
2018-01-23T03:08:31.215Z,8.27
2018-01-23T03:10:58.679Z,9.50
2018-01-23T03:13:26.150Z,9.20
2018-01-23T03:15:53.626Z,8.65
2018-01-23T03:18:21.119Z,9.05
2018-01-23T03:20:48.595Z,9.23
2018-01-23T03:23:16.055Z,9.35
2018-01-23T03:25:43.529Z,9.75
2018-01-23T03:28:10.971Z,8.90
2018-01-23T03:30:38.455Z,8.95
2018-01-23T03:33:05.930Z,8.80
2018-01-23T03:35:33.402Z,8.85
2018-01-23T03:38:00.876Z,8.77
2018-01-23T03:40:28.367Z,9.80
2018-01-23T03:42:55.832Z,8.93
2018-01-23T03:45:23.290Z,8.80
2018-01-23T03:47:50.768Z,8.75
2018-01-23T03:50:18.237Z,9.25
2018-01-23T03:52:45.693Z,8.57
2018-01-23T03:55:13.163Z,8.75
2018-01-23T03:57:40.617Z,8.35
2018-01-23T04:00:08.090Z,9.55
2018-01-23T04:02:35.568Z,8.90
2018-01-23T04:05:03.032Z,8.40
2018-01-23T04:07:30.488Z,8.15
2018-01-23T04:09:57.977Z,8.23
2018-01-23T04:12:25.444Z,9.38
2018-01-23T04:14:52.904Z,7.95
2018-01-23T04:17:20.388Z,8.00
2018-01-23T04:19:47.848Z,7.70
2018-01-23T04:22:15.318Z,6.90
2018-01-23T04:24:42.783Z,7.90
2018-01-23T04:27:10.236Z,8.20
2018-01-23T04:29:37.696Z,7.78
2018-01-23T04:32:05.175Z,7.78
2018-01-23T04:34:32.628Z,8.23
2018-01-23T04:37:00.101Z,8.38
2018-01-23T04:39:27.568Z,8.18
2018-01-23T04:41:55.046Z,8.02
2018-01-23T04:44:22.514Z,8.00
2018-01-23T04:46:49.983Z,7.68
2018-01-23T04:49:17.432Z,7.43
2018-01-23T04:51:44.889Z,8.85
2018-01-23T04:54:12.378Z,7.30
2018-01-23T04:56:39.838Z,6.82
2018-01-23T04:59:07.316Z,7.65
2018-01-23T05:01:34.814Z,7.15
2018-01-23T05:04:02.294Z,6.25
2018-01-23T05:06:29.749Z,7.57
2018-01-23T05:08:57.234Z,7.25
2018-01-23T05:11:24.697Z,6.87
2018-01-23T05:13:52.163Z,6.15
2018-01-23T05:16:19.627Z,6.87
2018-01-23T05:18:47.103Z,7.03
2018-01-23T05:21:14.568Z,7.45
2018-01-23T05:23:42.258Z,7.15
2018-01-23T05:26:09.720Z,6.78
2018-01-23T05:28:37.195Z,6.87
2018-01-23T05:31:04.664Z,5.75
2018-01-23T05:33:32.139Z,7.03
2018-01-23T05:35:59.619Z,5.20
2018-01-23T05:38:27.088Z,6.20
2018-01-23T05:40:54.578Z,6.75
2018-01-23T05:43:22.054Z,5.78
2018-01-23T05:45:49.520Z,5.80
2018-01-23T05:48:16.982Z,6.10
2018-01-23T05:50:44.458Z,6.22
2018-01-23T05:53:11.929Z,6.05
2018-01-23T05:55:39.409Z,6.15
2018-01-23T05:58:06.879Z,6.55
2018-01-23T06:00:34.371Z,6.70
2018-01-23T06:03:01.832Z,6.53
2018-01-23T06:05:29.289Z,5.72
2018-01-23T06:07:56.788Z,6.12
2018-01-23T06:10:24.256Z,6.53
2018-01-23T06:12:51.737Z,7.10
2018-01-23T06:15:19.213Z,6.72
2018-01-23T06:17:46.690Z,7.03
2018-01-23T06:20:14.151Z,6.07
2018-01-23T06:22:41.638Z,7.25
2018-01-23T06:25:09.098Z,8.32
2018-01-23T06:27:36.556Z,8.23
2018-01-23T06:30:04.074Z,7.75
2018-01-23T06:32:31.536Z,7.90
2018-01-23T06:34:59.003Z,7.85
2018-01-23T06:37:26.480Z,7.90
2018-01-23T06:39:53.933Z,8.75
2018-01-23T06:42:21.411Z,9.50
2018-01-23T06:44:48.883Z,8.80
2018-01-23T06:47:16.340Z,8.90
2018-01-23T06:49:43.823Z,9.35
2018-01-23T06:52:11.318Z,9.52
2018-01-23T06:54:38.774Z,9.20
2018-01-23T06:57:06.233Z,9.10
2018-01-23T06:59:33.723Z,9.55
2018-01-23T07:02:01.198Z,9.23
2018-01-23T07:04:28.659Z,9.40
2018-01-23T07:06:56.136Z,9.15
2018-01-23T07:09:23.620Z,10.02
2018-01-23T07:11:51.095Z,9.98
2018-01-23T07:14:18.587Z,8.95
2018-01-23T07:16:46.044Z,9.20
2018-01-23T07:19:13.505Z,9.65
2018-01-23T07:21:40.998Z,11.10
2018-01-23T07:24:08.484Z,11.63
2018-01-23T07:26:35.953Z,12.98
2018-01-23T07:29:03.451Z,9.32
2018-01-23T07:31:30.940Z,10.43
2018-01-23T07:33:58.413Z,10.15
2018-01-23T07:36:25.907Z,10.23
2018-01-23T07:38:53.416Z,10.80
2018-01-23T07:41:20.899Z,9.00
2018-01-23T07:43:48.395Z,9.77
2018-01-23T07:46:15.877Z,9.50
2018-01-23T07:48:43.336Z,8.32
2018-01-23T07:51:10.821Z,9.35
2018-01-23T07:53:38.284Z,9.10
2018-01-23T07:56:05.735Z,9.50
2018-01-23T07:58:33.209Z,9.25
2018-01-23T08:01:00.676Z,9.65
2018-01-23T08:03:28.163Z,10.02
2018-01-23T08:05:55.660Z,9.40
2018-01-23T08:08:23.138Z,9.77
2018-01-23T08:10:50.619Z,8.45
2018-01-23T08:13:18.140Z,8.38
2018-01-23T08:15:45.612Z,11.57
2018-01-23T08:18:13.069Z,9.30
2018-01-23T08:20:40.567Z,10.07
2018-01-23T08:23:08.048Z,9.48
2018-01-23T08:25:35.546Z,8.50
2018-01-23T08:28:03.030Z,8.32
2018-01-23T08:30:30.506Z,8.85
2018-01-23T08:32:58.009Z,9.73
2018-01-23T08:35:25.492Z,7.70
2018-01-23T08:37:52.962Z,8.82
2018-01-23T08:40:20.475Z,8.23
2018-01-23T08:42:47.960Z,8.00
2018-01-23T08:45:15.436Z,8.02
2018-01-23T08:47:42.940Z,7.10
2018-01-23T08:50:10.409Z,8.57
2018-01-23T08:52:37.874Z,7.45
2018-01-23T08:55:05.370Z,6.53
2018-01-23T08:57:32.825Z,8.35
2018-01-23T09:00:00.280Z,7.55
2018-01-23T09:02:27.736Z,6.87
2018-01-23T09:04:55.196Z,7.75
2018-01-23T09:07:22.673Z,8.30
2018-01-23T09:09:50.172Z,8.13
2018-01-23T09:12:17.659Z,6.90
2018-01-23T09:14:45.129Z,8.25
2018-01-23T09:17:12.617Z,8.63
2018-01-23T09:19:40.092Z,8.68
2018-01-23T09:22:07.579Z,7.47
2018-01-23T09:24:35.092Z,8.40
2018-01-23T09:27:02.530Z,7.87
2018-01-23T09:29:30.039Z,9.40
2018-01-23T09:31:57.523Z,9.50
2018-01-23T09:34:24.980Z,8.43
2018-01-23T09:36:52.454Z,7.40
2018-01-23T09:39:19.918Z,7.40
2018-01-23T09:41:47.386Z,8.93
2018-01-23T09:44:14.876Z,8.32
2018-01-23T09:46:42.353Z,8.63
2018-01-23T09:49:09.839Z,9.13
2018-01-23T09:51:37.328Z,8.10
2018-01-23T09:54:04.786Z,7.47
2018-01-23T09:56:32.244Z,8.57
2018-01-23T09:58:59.724Z,8.50
2018-01-23T10:01:27.185Z,8.63
2018-01-23T10:03:54.702Z,8.70
2018-01-23T10:06:22.145Z,7.70
2018-01-23T10:08:49.634Z,7.30
2018-01-23T10:11:17.102Z,8.67
2018-01-23T10:13:44.602Z,8.00
2018-01-23T10:16:12.115Z,7.80
2018-01-23T10:18:39.595Z,8.05
2018-01-23T10:21:07.493Z,7.70
2018-01-23T10:23:35.009Z,7.57
2018-01-23T10:26:02.624Z,8.57
2018-01-23T10:28:30.135Z,8.23
2018-01-23T10:30:57.600Z,6.90
2018-01-23T10:33:25.077Z,7.37
2018-01-23T10:35:52.550Z,8.75
2018-01-23T10:38:19.291Z,8.30
2018-01-23T10:40:46.775Z,8.17
2018-01-23T10:43:14.234Z,7.43
2018-01-23T10:45:41.698Z,7.47
2018-01-23T10:48:09.165Z,7.77
2018-01-23T10:50:36.638Z,7.53
2018-01-23T10:53:04.107Z,7.43
2018-01-23T10:55:31.586Z,7.60
2018-01-23T10:57:59.036Z,7.27
2018-01-23T11:00:26.511Z,7.33
2018-01-23T11:02:53.984Z,7.20
2018-01-23T11:05:21.478Z,8.20
2018-01-23T11:07:49.101Z,9.90
2018-01-23T11:10:16.593Z,8.07
2018-01-23T11:12:44.075Z,7.93
2018-01-23T11:15:11.520Z,7.57
2018-01-23T11:17:38.993Z,6.60
2018-01-23T11:20:06.469Z,7.93
2018-01-23T11:22:33.925Z,7.57
2018-01-23T11:25:01.450Z,6.50
2018-01-23T11:27:28.919Z,7.13
2018-01-23T11:29:56.377Z,6.03
2018-01-23T11:32:23.858Z,5.60
2018-01-23T11:34:51.884Z,6.50
2018-01-23T11:37:19.372Z,6.43
2018-01-23T11:39:46.865Z,7.07
2018-01-23T11:42:14.642Z,6.33
2018-01-23T11:44:42.124Z,6.80
2018-01-23T11:47:09.585Z,6.50
2018-01-23T11:49:37.041Z,6.93
2018-01-23T11:52:04.503Z,6.70
2018-01-23T11:54:31.958Z,7.00
2018-01-23T11:56:59.437Z,6.33
2018-01-23T11:59:26.923Z,6.80
2018-01-23T12:01:54.385Z,5.77
2018-01-23T12:04:21.839Z,5.73
2018-01-23T12:06:49.310Z,6.40
2018-01-23T12:09:16.799Z,6.20
2018-01-23T12:11:44.270Z,6.27
2018-01-23T12:14:11.726Z,6.33
2018-01-23T12:16:39.192Z,6.23
2018-01-23T12:19:06.678Z,7.20
2018-01-23T12:21:34.137Z,6.00
2018-01-23T12:24:01.603Z,5.60
2018-01-23T12:26:29.060Z,6.43
2018-01-23T12:28:56.504Z,6.27
2018-01-23T12:31:23.961Z,6.80
2018-01-23T12:33:51.443Z,6.20
2018-01-23T12:36:18.919Z,5.87
2018-01-23T12:38:46.380Z,6.80
2018-01-23T12:41:13.867Z,6.43
2018-01-23T12:43:41.343Z,6.23
2018-01-23T12:46:08.805Z,6.30
2018-01-23T12:48:36.287Z,7.30
2018-01-23T12:51:03.757Z,6.90
2018-01-23T12:53:31.216Z,7.30
2018-01-23T12:55:58.672Z,7.57
2018-01-23T12:58:26.146Z,7.60
2018-01-23T13:00:53.683Z,6.77
2018-01-23T13:03:21.149Z,7.00
2018-01-23T13:05:48.596Z,7.57
2018-01-23T13:08:16.071Z,7.30
2018-01-23T13:10:43.539Z,9.77
2018-01-23T13:13:11.114Z,7.90
2018-01-23T13:15:38.572Z,7.17
2018-01-23T13:18:06.035Z,7.30
2018-01-23T13:20:33.476Z,8.53
2018-01-23T13:23:00.945Z,7.60
2018-01-23T13:25:28.393Z,8.53
2018-01-23T13:27:55.868Z,7.33
2018-01-23T13:30:23.348Z,6.70
2018-01-23T13:32:50.814Z,8.53
2018-01-23T13:35:18.284Z,6.67
2018-01-23T13:37:45.788Z,8.90
2018-01-23T13:40:13.242Z,7.87
2018-01-23T13:42:40.688Z,8.53
2018-01-23T13:45:08.162Z,6.67
2018-01-23T13:47:35.627Z,6.90
2018-01-23T13:50:03.068Z,6.80
2018-01-23T13:52:30.547Z,8.33
2018-01-23T13:54:58.019Z,7.73
2018-01-23T13:57:25.480Z,6.90
2018-01-23T13:59:52.939Z,7.00
2018-01-23T14:02:20.398Z,7.20
2018-01-23T14:04:47.883Z,7.70
2018-01-23T14:07:15.349Z,7.90
2018-01-23T14:09:42.813Z,7.27
2018-01-23T14:12:10.291Z,6.83
2018-01-23T14:14:37.741Z,6.37
2018-01-23T14:17:05.187Z,7.57
2018-01-23T14:19:32.676Z,6.87
2018-01-23T14:22:00.120Z,6.83
2018-01-23T14:24:27.564Z,8.37
2018-01-23T14:26:55.076Z,8.80
2018-01-23T14:29:22.524Z,8.00
2018-01-23T14:31:49.985Z,8.20
2018-01-23T14:34:17.457Z,8.23
2018-01-23T14:36:44.923Z,7.80
2018-01-23T14:39:12.390Z,7.13
2018-01-23T14:41:39.872Z,7.50
2018-01-23T14:44:07.325Z,7.70
2018-01-23T14:46:34.770Z,6.90
2018-01-23T14:49:02.254Z,6.93
2018-01-23T14:51:29.706Z,6.57
2018-01-23T14:53:57.161Z,7.87
2018-01-23T14:56:24.661Z,7.27
2018-01-23T14:58:52.127Z,8.13
2018-01-23T15:01:19.575Z,8.23
2018-01-23T15:03:47.040Z,6.60
2018-01-23T15:06:14.515Z,8.73
2018-01-23T15:08:41.969Z,7.17
2018-01-23T15:11:09.428Z,6.70
2018-01-23T15:13:36.880Z,7.37
2018-01-23T15:16:04.337Z,7.73
2018-01-23T15:18:31.827Z,7.60
2018-01-23T15:20:59.300Z,8.60
2018-01-23T15:23:26.761Z,7.37
2018-01-23T15:25:54.247Z,7.63
2018-01-23T15:28:21.720Z,6.53
2018-01-23T15:30:49.190Z,6.73
2018-01-23T15:33:16.672Z,7.03
2018-01-23T15:35:44.124Z,6.77
2018-01-23T15:38:11.587Z,7.60
2018-01-23T15:40:39.044Z,7.37
2018-01-23T15:43:06.501Z,7.23
2018-01-23T15:45:33.953Z,7.10
2018-01-23T15:48:01.431Z,7.20
2018-01-23T15:50:28.903Z,7.70
2018-01-23T15:52:56.385Z,8.73
2018-01-23T15:55:23.872Z,8.70
2018-01-23T15:57:51.343Z,8.37
2018-01-23T16:00:18.808Z,8.50
2018-01-23T16:02:46.288Z,8.57
2018-01-23T16:05:13.800Z,9.13
2018-01-23T16:07:41.237Z,10.70
2018-01-23T16:10:08.796Z,9.70
2018-01-23T16:12:36.249Z,8.40
2018-01-23T16:15:03.696Z,9.00
2018-01-23T16:17:31.161Z,8.80
2018-01-23T16:19:58.633Z,8.60
2018-01-23T16:22:26.119Z,8.40
2018-01-23T16:24:53.653Z,9.10
2018-01-23T16:27:21.118Z,8.60
2018-01-23T16:29:48.568Z,8.63
2018-01-23T16:32:16.046Z,9.20
2018-01-23T16:34:42.796Z,9.70
2018-01-23T16:39:41.903Z,8.13
2018-01-23T16:42:09.359Z,8.20
2018-01-23T16:44:36.832Z,9.43
2018-01-23T16:47:04.315Z,9.33
2018-01-23T16:49:31.772Z,9.07
2018-01-23T16:51:59.243Z,9.43
2018-01-23T16:54:26.701Z,9.70
2018-01-23T16:56:54.170Z,9.57
2018-01-23T16:59:21.624Z,10.37
2018-01-23T17:01:49.086Z,9.23
2018-01-23T17:04:16.555Z,9.67
2018-01-23T17:06:44.829Z,10.20
2018-01-23T17:09:12.311Z,9.20
2018-01-23T17:11:39.782Z,8.97
2018-01-23T17:14:07.234Z,9.70
2018-01-23T17:16:34.785Z,9.50
2018-01-23T17:19:02.241Z,8.67
2018-01-23T17:21:29.719Z,9.70
2018-01-23T17:23:57.190Z,10.20
2018-01-23T17:26:24.680Z,9.37
2018-01-23T17:28:52.173Z,10.00
2018-01-23T17:31:19.643Z,9.33
2018-01-23T17:33:47.104Z,9.20
2018-01-23T17:36:14.568Z,10.17
2018-01-23T17:38:42.032Z,9.87
2018-01-23T17:41:09.527Z,9.50
2018-01-23T17:43:36.976Z,9.53
2018-01-23T17:46:04.467Z,9.57
2018-01-23T17:48:31.907Z,9.73
2018-01-23T17:50:59.364Z,11.43
2018-01-23T17:53:26.855Z,10.10
2018-01-23T17:55:54.327Z,10.87
2018-01-23T17:58:21.796Z,10.33
2018-01-23T18:00:49.295Z,10.73
2018-01-23T18:03:16.772Z,10.47
2018-01-23T18:05:44.221Z,9.20
2018-01-23T18:08:11.716Z,10.63
2018-01-23T18:10:39.182Z,10.23
2018-01-23T18:13:06.639Z,11.20
2018-01-23T18:15:34.123Z,10.45
2018-01-23T18:18:01.584Z,11.95
2018-01-23T18:20:29.052Z,11.85
2018-01-23T18:22:56.539Z,10.50
2018-01-23T18:25:24.022Z,11.57
2018-01-23T18:27:51.483Z,11.75
2018-01-23T18:30:18.970Z,13.32
2018-01-23T18:32:46.445Z,11.40
2018-01-23T18:35:13.930Z,11.60
2018-01-23T18:37:41.532Z,12.37
2018-01-23T18:40:08.997Z,11.45
2018-01-23T18:42:36.460Z,11.82
2018-01-23T18:45:03.960Z,13.43
2018-01-23T18:47:31.436Z,11.63
2018-01-23T18:49:58.897Z,13.00
2018-01-23T18:52:26.387Z,13.68
2018-01-23T18:54:53.853Z,12.35
2018-01-23T18:57:21.316Z,12.80
2018-01-23T18:59:48.820Z,10.93
2018-01-23T19:02:16.299Z,13.40
2018-01-23T19:04:43.779Z,11.82
2018-01-23T19:07:11.279Z,14.55
2018-01-23T19:09:38.733Z,15.20
2018-01-23T19:12:06.225Z,16.12
2018-01-23T19:14:33.722Z,14.73
2018-01-23T19:17:01.207Z,14.57
2018-01-23T19:19:28.660Z,15.10
2018-01-23T19:21:56.132Z,14.50
2018-01-23T19:24:23.606Z,13.70
2018-01-23T19:26:51.076Z,15.18
2018-01-23T19:29:18.552Z,13.75
2018-01-23T19:31:46.028Z,12.63
2018-01-23T19:34:13.484Z,14.25
2018-01-23T19:36:40.975Z,12.48
2018-01-23T19:39:08.441Z,12.75
2018-01-23T19:41:35.904Z,13.13
2018-01-23T19:44:03.381Z,13.45
2018-01-23T19:46:30.842Z,13.65
2018-01-23T19:48:58.313Z,12.32
2018-01-23T19:51:25.795Z,12.20
2018-01-23T19:53:53.261Z,13.40
2018-01-23T19:56:20.744Z,12.05
2018-01-23T19:58:48.221Z,13.13
2018-01-23T20:01:15.695Z,13.05
2018-01-23T20:03:43.182Z,13.57
2018-01-23T20:06:10.682Z,12.75
2018-01-23T20:08:38.152Z,13.57
2018-01-23T20:11:05.616Z,12.52
2018-01-23T20:13:33.116Z,12.75
2018-01-23T20:16:00.572Z,14.10
2018-01-23T20:18:28.056Z,13.35
2018-01-23T20:20:55.531Z,13.50
2018-01-23T20:23:23.003Z,14.52
2018-01-23T20:25:50.469Z,13.43
2018-01-23T20:28:17.940Z,14.75
2018-01-23T20:30:45.424Z,14.10
2018-01-23T20:33:12.889Z,13.70
2018-01-23T20:35:40.379Z,15.35
2018-01-23T20:38:07.855Z,14.18
2018-01-23T20:40:35.335Z,14.20
2018-01-23T20:43:02.820Z,14.15
2018-01-23T20:45:30.285Z,13.25
2018-01-23T20:47:57.751Z,13.88
2018-01-23T20:50:25.226Z,13.32
2018-01-23T20:52:52.698Z,12.65
2018-01-23T20:55:20.156Z,11.40
2018-01-23T20:57:47.653Z,10.57
2018-01-23T21:00:15.132Z,10.50
2018-01-23T21:02:42.611Z,11.93
2018-01-23T21:05:10.948Z,10.30
2018-01-23T21:07:38.434Z,12.35
2018-01-23T21:10:05.923Z,11.50
2018-01-23T21:12:33.422Z,10.80
2018-01-23T21:15:00.900Z,11.10
2018-01-23T21:17:28.356Z,11.52
2018-01-23T21:19:55.833Z,11.57
2018-01-23T21:22:23.301Z,11.20
2018-01-23T21:24:50.767Z,11.10
2018-01-23T21:27:18.243Z,12.73
2018-01-23T21:29:45.701Z,9.85
2018-01-23T21:32:13.172Z,10.38
2018-01-23T21:34:40.653Z,10.10
2018-01-23T21:37:08.139Z,9.55
2018-01-23T21:39:35.607Z,33.20
2018-01-23T21:42:03.095Z,11.18
2018-01-23T21:44:30.570Z,10.57
2018-01-23T21:46:58.021Z,8.55
2018-01-23T21:49:25.515Z,10.20
2018-01-23T21:51:52.983Z,9.68
2018-01-23T21:54:20.467Z,9.88
2018-01-23T21:56:47.959Z,9.50
2018-01-23T21:59:15.426Z,9.77
2018-01-23T22:01:42.889Z,8.70
2018-01-23T22:04:10.363Z,9.07
2018-01-23T22:06:37.842Z,9.93
2018-01-23T22:09:05.323Z,8.73
2018-01-23T22:11:32.819Z,8.90
2018-01-23T22:14:00.264Z,9.23
2018-01-23T22:16:27.723Z,10.05
2018-01-23T22:18:55.207Z,9.15
2018-01-23T22:21:22.661Z,8.55
2018-01-23T22:23:50.127Z,9.00
2018-01-23T22:26:17.647Z,8.98
2018-01-23T22:28:45.114Z,8.85
2018-01-23T22:31:12.646Z,10.07
2018-01-23T22:33:40.166Z,8.90
2018-01-23T22:36:07.639Z,9.00
2018-01-23T22:38:35.111Z,9.13
2018-01-23T22:41:02.602Z,7.93
2018-01-23T22:43:30.067Z,8.77
2018-01-23T22:45:57.535Z,9.33
2018-01-23T22:48:25.006Z,7.90
2018-01-23T22:50:52.482Z,9.10
2018-01-23T22:53:20.011Z,8.52
2018-01-23T22:55:47.475Z,7.50
2018-01-23T22:58:14.940Z,9.38
2018-01-23T23:00:42.391Z,8.85
2018-01-23T23:03:09.891Z,8.90
2018-01-23T23:05:37.357Z,8.20
2018-01-23T23:08:04.886Z,7.95
2018-01-23T23:10:32.345Z,8.90
2018-01-23T23:12:59.838Z,8.10
2018-01-23T23:15:27.303Z,8.68
2018-01-23T23:17:54.788Z,8.40
2018-01-23T23:20:22.264Z,7.80
2018-01-23T23:22:49.747Z,7.85
2018-01-23T23:25:17.230Z,8.65
2018-01-23T23:27:44.702Z,8.60
2018-01-23T23:30:12.183Z,8.90
2018-01-23T23:32:39.650Z,7.65
2018-01-23T23:35:07.148Z,10.32
2018-01-23T23:37:34.632Z,8.65
2018-01-23T23:40:02.097Z,7.50
2018-01-23T23:42:29.578Z,7.78
2018-01-23T23:44:57.036Z,8.18
2018-01-23T23:47:24.519Z,8.05
2018-01-23T23:49:51.994Z,7.80
2018-01-23T23:52:19.458Z,7.70
2018-01-23T23:54:46.912Z,9.05
2018-01-23T23:57:14.400Z,6.80
2018-01-23T23:59:41.876Z,8.75
